M/T Goviken — 9HA2718 — position and weather

sailwx.info

Track history (hours):
 
Tides and Currents Weather Stations Pressure Air Temp Water Temp Dewpoint Dewpoint Depression Visibility Wind Speed Wind Dir Waves Ship Positions

M/T Goviken

Last reported at 2016-Feb-12 15:31 UTC. Time now 2016-Feb-12 16:17 UTC.
Position N 39°05' E 009°02'.

Length 88 m; draft 6.2 m.

Type: Ship (hazmat cat A). MMSI: 215389000.

Date/timePositionNaut miles runAvg speedWind from/ knotsBaromVisibWave heightAir tempDewpointWater temp
2016-Feb-12 15:31N 39°05' E 009°02'0 0.0
2016-Feb-12 14:31N 39°05' E 009°02'0 0.0
2016-Feb-12 13:31N 39°05' E 009°02'0 0.0
2016-Feb-12 12:31N 39°05' E 009°02'0 0.0
2016-Feb-12 11:28N 39°05' E 009°02'0 0.0
2016-Feb-12 10:28N 39°05' E 009°02'0 0.0
2016-Feb-12 09:31N 39°05' E 009°02'0 0.0
2016-Feb-12 08:31N 39°05' E 009°02'0 0.0
2016-Feb-12 07:31N 39°05' E 009°02'0 0.0
2016-Feb-11 16:31N 39°05' E 009°02'2 1.7
2016-Feb-11 15:33N 39°04' E 009°04'8 7.6
2016-Feb-11 14:33N 38°57' E 009°03'1312.3
2016-Feb-11 13:31N 38°49' E 008°51'29111.2
2016-Feb-10 11:27N 42°50' E 005°16'1111.7
2016-Feb-10 10:33N 42°60' E 005°10'1212.1
2016-Feb-10 09:33N 43°10' E 005°02'1211.9
2016-Feb-10 08:33N 43°22' E 004°58'3 2.5
2016-Feb-10 07:33N 43°24' E 004°60'0 0.0
2016-Feb-10 06:33N 43°24' E 004°60'0 0.0
2016-Feb-10 05:33N 43°24' E 004°60'0 0.0
2016-Feb-10 04:33N 43°24' E 004°60'0 0.0
2016-Feb-10 03:33N 43°24' E 004°60'0 0.0
2016-Feb-10 02:33N 43°24' E 004°60'0 0.0
2016-Feb-10 01:33N 43°24' E 004°60'0 0.0
2016-Feb-10 00:33N 43°24' E 004°60'0 0.0
2016-Feb-09 23:30N 43°24' E 004°60'0 0.0
2016-Feb-09 22:33N 43°24' E 004°60'0 0.0
2016-Feb-09 21:33N 43°24' E 004°60'0 0.0
2016-Feb-09 20:30N 43°24' E 004°60'0 0.0
2016-Feb-09 19:33N 43°24' E 004°60'0 0.0
2016-Feb-09 18:33N 43°24' E 004°60'0 0.0
2016-Feb-09 17:30N 43°24' E 004°60'0 0.0
2016-Feb-09 16:30N 43°24' E 004°60'0 0.0
2016-Feb-09 15:33N 43°24' E 004°60'0 0.0
2016-Feb-09 14:30N 43°24' E 004°60'0 0.0
2016-Feb-09 13:33N 43°24' E 004°60'0 0.0
2016-Feb-09 12:33N 43°24' E 004°60'0 0.0
2016-Feb-09 11:33N 43°24' E 004°60'0 0.0
2016-Feb-09 10:33N 43°24' E 004°60'0 0.0
2016-Feb-09 09:33N 43°24' E 004°60'0 0.1
2016-Feb-09 08:34N 43°24' E 004°60'2 2.1
2016-Feb-09 07:32N 43°24' E 004°57'0 0.0
2016-Feb-09 06:32N 43°24' E 004°57'0 0.0
2016-Feb-09 05:32N 43°24' E 004°57'0 0.0
2016-Feb-09 04:32N 43°24' E 004°57'0 0.0
2016-Feb-09 03:32N 43°24' E 004°57'0 0.0
2016-Feb-09 02:32N 43°24' E 004°57'0 0.0
2016-Feb-09 01:32N 43°24' E 004°57'0 0.0
2016-Feb-09 00:32N 43°24' E 004°57'0 0.0
2016-Feb-08 23:32N 43°24' E 004°57'0 0.0
2016-Feb-08 22:32N 43°24' E 004°57'0 0.0
2016-Feb-08 21:32N 43°24' E 004°57'0 0.0
2016-Feb-08 20:32N 43°24' E 004°57'0 0.0
2016-Feb-08 19:32N 43°24' E 004°57'0 0.0
2016-Feb-08 18:32N 43°24' E 004°57'0 0.0
2016-Feb-08 17:32N 43°24' E 004°57'4 4.4
2016-Feb-08 16:33N 43°20' E 004°59'7 6.8
2016-Feb-08 15:33N 43°14' E 005°02'6 6.2
2016-Feb-08 14:33N 43°08' E 004°59'7 6.9
2016-Feb-08 13:33N 43°02' E 004°53'7 7.2
2016-Feb-08 12:33N 42°56' E 004°48'7 7.2
2016-Feb-08 11:33N 42°50' E 004°42'7 7.1
2016-Feb-08 10:33N 42°45' E 004°36'8 8.0
2016-Feb-08 09:33N 42°38' E 004°30'105 7.5
2016-Feb-07 19:29N 41°14' E 003°06'7 7.7
2016-Feb-07 18:33N 41°08' E 002°60'8 7.7
2016-Feb-07 17:33N 41°02' E 002°53'8 7.9
2016-Feb-07 16:33N 40°56' E 002°47'8 7.7
2016-Feb-07 15:33N 40°50' E 002°40'8 8.0
2016-Feb-07 14:33N 40°44' E 002°34'8 8.3
2016-Feb-07 13:33N 40°37' E 002°27'8 8.0
2016-Feb-07 12:33N 40°31' E 002°20'8 8.3
2016-Feb-07 11:33N 40°24' E 002°14'8 8.4
2016-Feb-07 10:33N 40°18' E 002°07'8 7.8
2016-Feb-07 09:33N 40°12' E 002°01'8 7.9
2016-Feb-07 08:33N 40°05' E 001°54'7 7.5
2016-Feb-07 07:33N 39°60' E 001°48'8 7.8
2016-Feb-07 06:33N 39°54' E 001°42'8 7.7
2016-Feb-07 05:33N 39°48' E 001°35'8 7.9
2016-Feb-07 04:32N 39°41' E 001°29'10 7.8
2016-Feb-07 03:18N 39°34' E 001°21'6 7.9
2016-Feb-07 02:33N 39°29' E 001°16'118 7.8
2016-Feb-06 11:27N 37°54' W 000°13'8 7.8
2016-Feb-06 10:23N 37°48' W 000°19'6 7.8
2016-Feb-06 09:33N 37°42' W 000°23'8 7.7
2016-Feb-06 08:33N 37°36' W 000°29'8 7.8
2016-Feb-06 07:32N 37°30' W 000°35'8 7.8
2016-Feb-06 06:33N 37°25' W 000°43'8 8.1
2016-Feb-06 05:31N 37°19' W 000°50'18 7.9
2016-Feb-06 03:14N 37°07' W 001°07'7 9.4
2016-Feb-06 02:26N 37°02' W 001°14'196 8.1
2016-Feb-05 02:07N 36°01' W 005°06'4 7.9
2016-Feb-05 01:33N 35°60' W 005°11'7 7.5
2016-Feb-05 00:33N 35°59' W 005°20'8 8.2
2016-Feb-04 23:33N 35°57' W 005°30'9 9.0
2016-Feb-04 22:33N 35°54' W 005°41'10 9.5
2016-Feb-04 21:28N 35°54' W 005°53'81 2.1
2016-Feb-03 07:14N 36°49' W 007°07'911.9
2016-Feb-03 06:27N 36°47' W 007°18'1411.7
2016-Feb-03 05:16N 36°44' W 007°35'911.9
2016-Feb-03 04:32N 36°42' W 007°46'1211.7
2016-Feb-03 03:33N 36°39' W 007°60'1111.4
2016-Feb-03 02:33N 36°37' W 008°14'1211.4
2016-Feb-03 01:32N 36°33' W 008°27'1111.3
2016-Feb-03 00:32N 36°31' W 008°41'1211.2
2016-Feb-02 23:29N 36°29' W 008°56'1010.8
2016-Feb-02 22:32N 36°28' W 009°08'1212.2
2016-Feb-02 21:32N 36°32' W 009°22'1110.7
2016-Feb-02 20:32N 36°40' W 009°31'1111.4
2016-Feb-02 19:32N 36°50' W 009°38'1211.7
2016-Feb-02 18:30N 37°02' W 009°42'1412.4
2016-Feb-02 17:23N 37°15' W 009°46'1112.4
2016-Feb-02 16:30N 37°26' W 009°49'1111.6
2016-Feb-02 15:32N 37°37' W 009°52'  
Track history (hours):
 
Tides and Currents Weather Stations Pressure Air Temp Water Temp Dewpoint Dewpoint Depression Visibility Wind Speed Wind Dir Waves Ship Positions

M/T Goviken

Last reported at 2016-Feb-12 15:31 UTC. Time now 2016-Feb-12 16:17 UTC.
Position N 39°05' E 009°02'.

Length 88 m; draft 6.2 m.

Type: Ship (hazmat cat A). MMSI: 215389000.

Date/timePositionNaut miles runAvg speedWind from/ knotsBaromVisibWave heightAir tempDewpointWater temp
2016-Feb-12 15:31N 39°05' E 009°02'0 0.0
2016-Feb-12 14:31N 39°05' E 009°02'0 0.0
2016-Feb-12 13:31N 39°05' E 009°02'0 0.0
2016-Feb-12 12:31N 39°05' E 009°02'0 0.0
2016-Feb-12 11:28N 39°05' E 009°02'0 0.0
2016-Feb-12 10:28N 39°05' E 009°02'0 0.0
2016-Feb-12 09:31N 39°05' E 009°02'0 0.0
2016-Feb-12 08:31N 39°05' E 009°02'0 0.0
2016-Feb-12 07:31N 39°05' E 009°02'0 0.0
2016-Feb-11 16:31N 39°05' E 009°02'2 1.7
2016-Feb-11 15:33N 39°04' E 009°04'8 7.6
2016-Feb-11 14:33N 38°57' E 009°03'1312.3
2016-Feb-11 13:31N 38°49' E 008°51'29111.2
2016-Feb-10 11:27N 42°50' E 005°16'1111.7
2016-Feb-10 10:33N 42°60' E 005°10'1212.1
2016-Feb-10 09:33N 43°10' E 005°02'1211.9
2016-Feb-10 08:33N 43°22' E 004°58'3 2.5
2016-Feb-10 07:33N 43°24' E 004°60'0 0.0
2016-Feb-10 06:33N 43°24' E 004°60'0 0.0
2016-Feb-10 05:33N 43°24' E 004°60'0 0.0
2016-Feb-10 04:33N 43°24' E 004°60'0 0.0
2016-Feb-10 03:33N 43°24' E 004°60'0 0.0
2016-Feb-10 02:33N 43°24' E 004°60'0 0.0
2016-Feb-10 01:33N 43°24' E 004°60'0 0.0
2016-Feb-10 00:33N 43°24' E 004°60'0 0.0
2016-Feb-09 23:30N 43°24' E 004°60'0 0.0
2016-Feb-09 22:33N 43°24' E 004°60'0 0.0
2016-Feb-09 21:33N 43°24' E 004°60'0 0.0
2016-Feb-09 20:30N 43°24' E 004°60'0 0.0
2016-Feb-09 19:33N 43°24' E 004°60'0 0.0
2016-Feb-09 18:33N 43°24' E 004°60'0 0.0
2016-Feb-09 17:30N 43°24' E 004°60'0 0.0
2016-Feb-09 16:30N 43°24' E 004°60'0 0.0
2016-Feb-09 15:33N 43°24' E 004°60'0 0.0
2016-Feb-09 14:30N 43°24' E 004°60'0 0.0
2016-Feb-09 13:33N 43°24' E 004°60'0 0.0
2016-Feb-09 12:33N 43°24' E 004°60'0 0.0
2016-Feb-09 11:33N 43°24' E 004°60'0 0.0
2016-Feb-09 10:33N 43°24' E 004°60'0 0.0
2016-Feb-09 09:33N 43°24' E 004°60'0 0.1
2016-Feb-09 08:34N 43°24' E 004°60'2 2.1
2016-Feb-09 07:32N 43°24' E 004°57'0 0.0
2016-Feb-09 06:32N 43°24' E 004°57'0 0.0
2016-Feb-09 05:32N 43°24' E 004°57'0 0.0
2016-Feb-09 04:32N 43°24' E 004°57'0 0.0
2016-Feb-09 03:32N 43°24' E 004°57'0 0.0
2016-Feb-09 02:32N 43°24' E 004°57'0 0.0
2016-Feb-09 01:32N 43°24' E 004°57'0 0.0
2016-Feb-09 00:32N 43°24' E 004°57'0 0.0
2016-Feb-08 23:32N 43°24' E 004°57'0 0.0
2016-Feb-08 22:32N 43°24' E 004°57'0 0.0
2016-Feb-08 21:32N 43°24' E 004°57'0 0.0
2016-Feb-08 20:32N 43°24' E 004°57'0 0.0
2016-Feb-08 19:32N 43°24' E 004°57'0 0.0
2016-Feb-08 18:32N 43°24' E 004°57'0 0.0
2016-Feb-08 17:32N 43°24' E 004°57'4 4.4
2016-Feb-08 16:33N 43°20' E 004°59'7 6.8
2016-Feb-08 15:33N 43°14' E 005°02'6 6.2
2016-Feb-08 14:33N 43°08' E 004°59'7 6.9
2016-Feb-08 13:33N 43°02' E 004°53'7 7.2
2016-Feb-08 12:33N 42°56' E 004°48'7 7.2
2016-Feb-08 11:33N 42°50' E 004°42'7 7.1
2016-Feb-08 10:33N 42°45' E 004°36'8 8.0
2016-Feb-08 09:33N 42°38' E 004°30'105 7.5
2016-Feb-07 19:29N 41°14' E 003°06'7 7.7
2016-Feb-07 18:33N 41°08' E 002°60'8 7.7
2016-Feb-07 17:33N 41°02' E 002°53'8 7.9
2016-Feb-07 16:33N 40°56' E 002°47'8 7.7
2016-Feb-07 15:33N 40°50' E 002°40'8 8.0
2016-Feb-07 14:33N 40°44' E 002°34'8 8.3
2016-Feb-07 13:33N 40°37' E 002°27'8 8.0
2016-Feb-07 12:33N 40°31' E 002°20'8 8.3
2016-Feb-07 11:33N 40°24' E 002°14'8 8.4
2016-Feb-07 10:33N 40°18' E 002°07'8 7.8
2016-Feb-07 09:33N 40°12' E 002°01'8 7.9
2016-Feb-07 08:33N 40°05' E 001°54'7 7.5
2016-Feb-07 07:33N 39°60' E 001°48'8 7.8
2016-Feb-07 06:33N 39°54' E 001°42'8 7.7
2016-Feb-07 05:33N 39°48' E 001°35'8 7.9
2016-Feb-07 04:32N 39°41' E 001°29'10 7.8
2016-Feb-07 03:18N 39°34' E 001°21'6 7.9
2016-Feb-07 02:33N 39°29' E 001°16'118 7.8
2016-Feb-06 11:27N 37°54' W 000°13'8 7.8
2016-Feb-06 10:23N 37°48' W 000°19'6 7.8
2016-Feb-06 09:33N 37°42' W 000°23'8 7.7
2016-Feb-06 08:33N 37°36' W 000°29'8 7.8
2016-Feb-06 07:32N 37°30' W 000°35'8 7.8
2016-Feb-06 06:33N 37°25' W 000°43'8 8.1
2016-Feb-06 05:31N 37°19' W 000°50'18 7.9
2016-Feb-06 03:14N 37°07' W 001°07'7 9.4
2016-Feb-06 02:26N 37°02' W 001°14'196 8.1
2016-Feb-05 02:07N 36°01' W 005°06'4 7.9
2016-Feb-05 01:33N 35°60' W 005°11'7 7.5
2016-Feb-05 00:33N 35°59' W 005°20'8 8.2
2016-Feb-04 23:33N 35°57' W 005°30'9 9.0
2016-Feb-04 22:33N 35°54' W 005°41'10 9.5
2016-Feb-04 21:28N 35°54' W 005°53'81 2.1
2016-Feb-03 07:14N 36°49' W 007°07'911.9
2016-Feb-03 06:27N 36°47' W 007°18'1411.7
2016-Feb-03 05:16N 36°44' W 007°35'911.9
2016-Feb-03 04:32N 36°42' W 007°46'1211.7
2016-Feb-03 03:33N 36°39' W 007°60'1111.4
2016-Feb-03 02:33N 36°37' W 008°14'1211.4
2016-Feb-03 01:32N 36°33' W 008°27'1111.3
2016-Feb-03 00:32N 36°31' W 008°41'1211.2
2016-Feb-02 23:29N 36°29' W 008°56'1010.8
2016-Feb-02 22:32N 36°28' W 009°08'1212.2
2016-Feb-02 21:32N 36°32' W 009°22'1110.7
2016-Feb-02 20:32N 36°40' W 009°31'1111.4
2016-Feb-02 19:32N 36°50' W 009°38'1211.7
2016-Feb-02 18:30N 37°02' W 009°42'1412.4
2016-Feb-02 17:23N 37°15' W 009°46'1112.4
2016-Feb-02 16:30N 37°26' W 009°49'1111.6
2016-Feb-02 15:32N 37°37' W 009°52'  

Dump ship's entire track history